sensor_id;sensor_type;location;lat;lon;timestamp;pressure;altitude;pressure_sealevel;temperature;humidity
26192;BME280;13935;55.672;37.764;2023-02-02T02:15:31;99058.09;;;0.53;100.00
26192;BME280;13935;55.672;37.764;2023-02-02T02:18:47;99060.59;;;0.46;100.00
26192;BME280;13935;55.672;37.764;2023-02-02T04:39:41;99088.94;;;0.33;100.00
26192;BME280;13935;55.672;37.764;2023-02-02T04:40:47;99085.03;;;0.22;100.00
26192;BME280;13935;55.672;37.764;2023-02-02T04:42:00;99083.25;;;0.26;100.00
26192;BME280;13935;55.672;37.764;2023-02-02T04:43:13;99088.47;;;0.31;100.00
26192;BME280;13935;55.672;37.764;2023-02-02T04:44:23;99095.03;;;0.30;100.00
26192;BME280;13935;55.672;37.764;2023-02-02T04:45:31;99088.69;;;0.26;100.00
26192;BME280;13935;55.672;37.764;2023-02-02T04:46:39;99091.84;;;0.28;100.00
26192;BME280;13935;55.672;37.764;2023-02-02T05:08:23;99103.94;;;0.19;100.00
26192;BME280;13935;55.672;37.764;2023-02-02T05:10:06;99103.41;;;0.13;100.00
26192;BME280;13935;55.672;37.764;2023-02-02T05:11:31;99112.69;;;0.12;100.00
26192;BME280;13935;55.672;37.764;2023-02-02T05:12:52;99106.66;;;0.19;100.00
26192;BME280;13935;55.672;37.764;2023-02-02T05:14:02;99103.38;;;0.01;100.00
26192;BME280;13935;55.672;37.764;2023-02-02T05:15:11;99111.44;;;0.10;100.00
26192;BME280;13935;55.672;37.764;2023-02-02T05:16:18;99107.72;;;0.14;100.00
26192;BME280;13935;55.672;37.764;2023-02-02T05:17:49;99106.56;;;0.15;100.00
26192;BME280;13935;55.672;37.764;2023-02-02T05:18:59;99110.44;;;0.14;100.00
26192;BME280;13935;55.672;37.764;2023-02-02T05:20:17;99107.13;;;0.09;100.00
26192;BME280;13935;55.672;37.764;2023-02-02T05:21:25;99112.03;;;0.15;100.00
26192;BME280;13935;55.672;37.764;2023-02-02T05:22:34;99111.78;;;0.20;100.00
26192;BME280;13935;55.672;37.764;2023-02-02T05:23:51;99107.72;;;0.14;100.00
26192;BME280;13935;55.672;37.764;2023-02-02T05:24:55;99115.53;;;0.16;100.00
26192;BME280;13935;55.672;37.764;2023-02-02T08:04:30;99168.50;;;1.14;100.00
26192;BME280;13935;55.672;37.764;2023-02-02T08:10:36;99169.38;;;1.18;100.00
26192;BME280;13935;55.672;37.764;2023-02-02T08:12:48;99171.88;;;1.11;100.00
26192;BME280;13935;55.672;37.764;2023-02-02T08:14:54;99166.91;;;1.13;100.00
26192;BME280;13935;55.672;37.764;2023-02-02T08:22:59;99168.44;;;1.38;100.00
26192;BME280;13935;55.672;37.764;2023-02-02T08:24:46;99160.28;;;1.38;100.00
26192;BME280;13935;55.672;37.764;2023-02-02T14:59:04;99214.06;;;1.29;100.00
26192;BME280;13935;55.672;37.764;2023-02-02T17:06:24;99280.09;;;1.02;100.00
26192;BME280;13935;55.672;37.764;2023-02-02T17:32:12;99304.59;;;0.90;100.00
26192;BME280;13935;55.672;37.764;2023-02-02T17:46:37;99315.81;;;1.00;100.00
26192;BME280;13935;55.672;37.764;2023-02-02T17:47:49;99313.44;;;0.99;100.00
26192;BME280;13935;55.672;37.764;2023-02-02T17:49:10;99316.38;;;0.94;100.00
26192;BME280;13935;55.672;37.764;2023-02-02T17:50:26;99311.84;;;0.98;100.00
26192;BME280;13935;55.672;37.764;2023-02-02T17:51:42;99303.13;;;0.92;100.00
26192;BME280;13935;55.672;37.764;2023-02-02T17:52:54;99311.28;;;0.92;100.00
26192;BME280;13935;55.672;37.764;2023-02-02T17:54:07;99313.88;;;0.89;100.00
26192;BME280;13935;55.672;37.764;2023-02-02T17:55:51;99314.69;;;1.01;100.00
26192;BME280;13935;55.672;37.764;2023-02-02T17:58:30;99317.69;;;0.76;100.00
26192;BME280;13935;55.672;37.764;2023-02-02T17:59:43;99319.09;;;0.82;100.00
26192;BME280;13935;55.672;37.764;2023-02-02T18:00:59;99311.06;;;0.97;100.00
26192;BME280;13935;55.672;37.764;2023-02-02T18:02:15;99315.69;;;0.97;100.00
26192;BME280;13935;55.672;37.764;2023-02-02T18:04:10;99308.56;;;0.92;100.00
26192;BME280;13935;55.672;37.764;2023-02-02T18:06:03;99320.69;;;0.95;100.00
